Alton, IN

2:03 AM EST on February 27, 2017 (GMT -0500)
Central2E | | Change Station

Elev 669 ft 38.10 °N, 86.13 °W | Updated 5 minutes ago

Overcast
Overcast
42.3 °F
Feels Like 40 °F
N
4.0
Wind Variable Wind from SW
Gusts 4.0 mph

Today
High -- | Low -- °F
--% Chance of Precip.
Yesterday
High -- | Low -- °F
Precip. -- in
Pressure 30.19 in
Visibility 10.0 miles
Clouds Few 5500 ft
Scattered Clouds 7500 ft
Windchill 40 °F
Dew Point 30 °F
Humidity 61%
Rainfall 0.00 in
Snow Depth Not available.
7:19 AM 6:37 PM
New Moon, 1% visible
METAR KFTK 270558Z AUTO 00000KT 10SM FEW055 SCT075 06/M03 A3017 RMK AO2 SLP222 T00621028 10076 20059
Pressure 30.19 in
Visibility 10.0 miles
Clouds Few 5500 ft
Scattered Clouds 7500 ft
Windchill 40 °F
Dew Point 30 °F
Humidity 61%
Rainfall 0.00 in
Snow Depth Not available.
7:19 AM 6:37 PM
New Moon, 1% visible
METAR KFTK 270558Z AUTO 00000KT 10SM FEW055 SCT075 06/M03 A3017 RMK AO2 SLP222 T00621028 10076 20059

Get Your Daily Forecast Email!

Thanks for signing up!

Be on the lookout for a verification email in your inbox.

You'll start receiving the daily forecast at 8 AM.

×

10-Day Weather Forecast

Almanac

Astronomy

Feb. 27, 2017 Rise Set
Actual Time
Civil Twilight
Nautical Twilight
Astronomical Twilight
Moon
Length of Visible Light
Length of Day
Tomorrow will be .
, % of the Moon is Illuminated

Today's Extremes

State Highs State Lows

Community

WunderPhotos

Upload Photos

1,962,540 photos uploaded!

WunderBlog® & News

Nearby

Air Quality

  Air Quality AQ Index Pollutant
Not available.

Snow Depth

Station Depth Elevation

Earthquake Activity

City Distance Mag. Time & Date
Minimum magnitude displayed is 2.5.

Coastal Water Temperatures

Place Temperature

Stations

Nearby Weather Stations

Station Location Temp. Windchill Dew Point Humidity Wind Precip. Elev Updated Type
                   

Watches & Warnings

There are currently no watches in effect.